Airfield :
LOGIN :

Register | Disclaimer

   EN    FR    IT 

 










Legend :    VFR   Marginal VFR   IFR   Intensive IFR   Very Intensive IFR
Visi :
Ceiling :
>= 8 km
>= 3000ft
5 to 8 km
1000 to 3000 ft
1500m to 5 km
500 to 1000 ft
800 to 1500m
200 to 500 ft
< 800m
< 200 ft
Symbols :   Thunderstorms  Fog  Heavy snow  Heavy precipitations  Wind > 20 kt
SIGMETs :     Misc.  Thunderstorms  Icing  Turbulence  Mountain Waves  Volcanic Ashes







- Airport Elevation : 230 ft


ETHB - Buckeburg Army

CURRENT METAR :
  • 210420Z 32008KT 2800 RA BR BKN003 13/13 Q1005 RERA YLO YLO TEMPO AMB

EXPIRED METARs :
  • 210410Z 33008KT 2800 RA BR SCT003 BKN005 13/13 Q1005 RERA YLO
  • 210320Z 32010KT 2800 -RA BR BKN003 BKN030 13/13 Q1005 RERA YLO
  • 210258Z 32008KT 2800 RA BR BKN003 13/13 Q1005 RERA YLO
  • 210242Z 31010KT 3700 -RA BR FEW003 SCT008 BKN030 13/13 Q1004 GRN
  • 210220Z 33010KT 2800 RA BR BKN006 BKN027 14/13 Q1005 RERA YLO
  • 210140Z 33008KT 3500 -RA BR BKN006 BKN020 14/13 Q1004 RERA YLO

TAF TAF ETHB
Valid from the 21 at 05:00 until the 21 at 14:00 UTC


210421Z 2105/2114 31008KT 3000 -RA BKN007 BKN015
TEMPO 2105/2110 33012KT 1200 SHRA BKN003 OVC008
TEMPO 2110/2114 30008KT 5000 BR BKN012 BKN020
No reported NOTAMs for that airfield.
1 SIGMET reported for the Bremen FIR (EDWW) :
 
Embedded thunderstorms
EDWW SIGMET 4 VALID 210400/210600 EDZF
EDWW BREMEN FIR EMBD TS OBS APRX 30NM WID LINE BTN N5338 E00933 - N5208 E00856 TOP FL340 MOV SSW NC=



MET'MAP, your aeronautical weather chart ! - Copyright ORBIFLY December 2007 - Disclaimer

ORBIFLY MET'MAP TEAM :

Programming & Development : Alexandra Zaïnal
Concept & Development : Baudouin d'Aumeries
Co-Development & Prog : Marc-Olivier Méhu
Technical & hardware support : Manuel Goepfert

Contact : metmap@orbifly.com




SOURCES & CREDITS :

   NOAA